createdAt,value
2018-11-11T00:03:49.204Z,3.00
2018-11-11T00:08:58.538Z,3.10
2018-11-11T00:14:08.287Z,3.13
2018-11-11T00:19:18.161Z,3.07
2018-11-11T00:24:27.741Z,2.43
2018-11-11T00:29:37.337Z,2.63
2018-11-11T00:34:47.137Z,2.43
2018-11-11T00:39:56.427Z,2.33
2018-11-11T00:45:06.361Z,2.70
2018-11-11T00:50:11.004Z,2.50
2018-11-11T00:55:16.576Z,2.63
2018-11-11T01:00:26.072Z,1.57
2018-11-11T01:05:35.580Z,1.80
2018-11-11T01:10:39.332Z,1.97
2018-11-11T01:15:48.712Z,1.47
2018-11-11T01:20:58.202Z,1.73
2018-11-11T01:26:07.515Z,1.63
2018-11-11T01:31:16.989Z,2.13
2018-11-11T01:36:26.428Z,1.83
2018-11-11T01:41:35.752Z,1.80
2018-11-11T01:46:45.071Z,1.70
2018-11-11T01:51:54.666Z,1.90
2018-11-11T01:57:04.017Z,1.67
2018-11-11T02:02:13.381Z,1.33
2018-11-11T02:07:20.655Z,1.83
2018-11-11T02:12:30.003Z,1.53
2018-11-11T02:17:39.402Z,1.43
2018-11-11T02:29:02.020Z,1.50
2018-11-11T02:34:11.349Z,2.20
2018-11-11T02:39:21.016Z,1.67
2018-11-11T02:44:30.608Z,1.90
2018-11-11T02:49:40.004Z,1.63
2018-11-11T02:54:49.340Z,1.70
2018-11-11T02:59:58.663Z,1.73
2018-11-11T03:05:08.832Z,1.90
2018-11-11T03:10:18.618Z,1.60
2018-11-11T03:15:28.019Z,1.50
2018-11-11T03:20:37.468Z,1.60
2018-11-11T03:25:46.760Z,1.60
2018-11-11T03:30:56.100Z,2.13
2018-11-11T03:36:05.773Z,1.40
2018-11-11T03:41:15.484Z,1.73
2018-11-11T03:46:24.869Z,1.43
2018-11-11T03:51:34.192Z,1.60
2018-11-11T03:56:43.697Z,1.77
2018-11-11T04:01:53.324Z,1.60
2018-11-11T04:07:02.679Z,1.67
2018-11-11T04:12:12.221Z,1.30
2018-11-11T04:17:21.611Z,1.47
2018-11-11T04:22:30.968Z,2.13
2018-11-11T04:27:40.266Z,1.80
2018-11-11T04:32:49.705Z,1.80
2018-11-11T04:37:59.168Z,1.60
2018-11-11T04:43:08.732Z,1.30
2018-11-11T04:48:18.048Z,1.10
2018-11-11T04:53:27.440Z,1.90
2018-11-11T04:58:36.820Z,2.00
2018-11-11T05:03:46.180Z,1.70
2018-11-11T05:08:55.479Z,1.60
2018-11-11T05:14:04.857Z,1.40
2018-11-11T05:19:14.477Z,1.40
2018-11-11T05:24:24.034Z,1.37
2018-11-11T05:29:27.761Z,1.40
2018-11-11T05:34:37.128Z,1.20
2018-11-11T05:39:46.709Z,1.87
2018-11-11T05:44:56.187Z,1.40
2018-11-11T05:50:07.280Z,1.30
2018-11-11T05:55:16.585Z,1.77
2018-11-11T06:00:26.036Z,1.47
2018-11-11T06:05:35.512Z,1.50
2018-11-11T06:10:44.836Z,1.60
2018-11-11T06:15:54.199Z,1.33
2018-11-11T06:21:04.367Z,1.43
2018-11-11T06:26:13.676Z,1.80
2018-11-11T06:31:23.030Z,1.40
2018-11-11T06:36:32.375Z,1.70
2018-11-11T06:41:41.876Z,1.93
2018-11-11T06:46:51.478Z,1.83
2018-11-11T06:52:01.313Z,1.90
2018-11-11T06:57:10.739Z,1.70
2018-11-11T07:02:20.103Z,1.80
2018-11-11T07:07:29.606Z,1.50
2018-11-11T07:12:39.146Z,1.47
2018-11-11T07:17:48.493Z,1.17
2018-11-11T07:22:58.099Z,1.50
2018-11-11T07:28:07.469Z,1.63
2018-11-11T07:33:17.020Z,1.60
2018-11-11T07:38:26.365Z,1.93
2018-11-11T07:43:36.102Z,1.10
2018-11-11T07:48:45.641Z,1.60
2018-11-11T07:53:55.141Z,1.47
2018-11-11T07:59:04.591Z,1.50
2018-11-11T08:04:14.103Z,1.37
2018-11-11T08:09:23.492Z,1.40
2018-11-11T08:14:32.807Z,1.57
2018-11-11T08:19:42.298Z,1.70
2018-11-11T08:24:51.611Z,0.97
2018-11-11T08:30:01.203Z,1.20
2018-11-11T08:35:10.684Z,0.80
2018-11-11T08:40:20.159Z,1.30
2018-11-11T08:45:29.431Z,1.27
2018-11-11T08:50:38.836Z,1.40
2018-11-11T08:55:48.229Z,1.00
2018-11-11T09:00:57.693Z,1.17
2018-11-11T09:06:07.051Z,0.90
2018-11-11T09:11:16.472Z,1.00
2018-11-11T09:16:25.782Z,0.70
2018-11-11T09:21:29.797Z,0.73
2018-11-11T09:26:39.088Z,1.00
2018-11-11T09:31:48.424Z,0.73
2018-11-11T09:36:57.775Z,0.90
2018-11-11T09:42:07.124Z,1.20
2018-11-11T09:47:10.881Z,1.23
2018-11-11T09:52:14.701Z,1.43
2018-11-11T09:57:18.499Z,1.43
2018-11-11T10:02:22.250Z,1.00
2018-11-11T10:07:37.073Z,0.87
2018-11-11T10:13:07.558Z,1.10
2018-11-11T10:19:20.448Z,1.13
2018-11-11T10:24:37.252Z,1.20
2018-11-11T10:29:56.168Z,1.27
2018-11-11T10:35:16.668Z,1.10
2018-11-11T10:40:36.001Z,0.93
2018-11-11T10:45:44.136Z,1.00
2018-11-11T10:50:53.180Z,1.00
2018-11-11T10:55:57.381Z,0.80
2018-11-11T11:01:06.415Z,1.03
2018-11-11T11:06:10.220Z,0.90
2018-11-11T11:11:14.048Z,0.90
2018-11-11T11:16:17.849Z,1.30
2018-11-11T11:21:21.677Z,1.27
2018-11-11T11:26:25.536Z,0.80
2018-11-11T11:31:29.363Z,1.20
2018-11-11T11:36:33.172Z,0.93
2018-11-11T11:41:36.980Z,1.00
2018-11-11T11:46:40.977Z,0.90
2018-11-11T11:51:45.229Z,1.43
2018-11-11T11:56:49.015Z,1.30
2018-11-11T12:01:52.867Z,1.47
2018-11-11T12:06:56.765Z,0.90
2018-11-11T12:12:00.549Z,1.80
2018-11-11T12:17:04.526Z,1.40
2018-11-11T12:22:08.453Z,1.80
2018-11-11T12:27:12.223Z,1.40
2018-11-11T12:32:16.179Z,1.77
2018-11-11T12:37:19.975Z,1.10
2018-11-11T12:42:24.213Z,1.60
2018-11-11T12:47:27.977Z,1.80
2018-11-11T12:52:31.996Z,1.17
2018-11-11T12:57:35.962Z,1.70
2018-11-11T13:02:39.855Z,1.10
2018-11-11T13:07:43.740Z,1.90
2018-11-11T13:12:47.596Z,1.40
2018-11-11T13:17:51.342Z,1.70
2018-11-11T13:23:01.009Z,1.30
2018-11-11T13:28:05.129Z,1.57
2018-11-11T13:33:14.460Z,1.40
2018-11-11T13:38:23.832Z,1.87
2018-11-11T13:43:33.301Z,2.53
2018-11-11T13:48:42.776Z,1.90
2018-11-11T13:53:52.237Z,2.30
2018-11-11T13:59:01.596Z,2.10
2018-11-11T14:04:11.061Z,2.43
2018-11-11T14:09:20.559Z,2.67
2018-11-11T14:14:30.130Z,2.03
2018-11-11T14:19:40.110Z,2.33
2018-11-11T14:24:49.472Z,1.90
2018-11-11T14:29:59.193Z,1.60
2018-11-11T14:35:10.025Z,1.30
2018-11-11T14:40:21.004Z,1.07
2018-11-11T14:45:30.900Z,1.27
2018-11-11T14:50:40.232Z,1.03
2018-11-11T14:55:50.239Z,1.27
2018-11-11T15:00:59.780Z,1.00
2018-11-11T15:06:09.339Z,1.80
2018-11-11T15:11:18.948Z,1.23
2018-11-11T15:16:28.508Z,1.07
2018-11-11T15:21:38.065Z,1.50
2018-11-11T15:26:47.492Z,1.10
2018-11-11T15:31:56.963Z,1.47
2018-11-11T15:37:06.620Z,1.47
2018-11-11T15:42:16.342Z,1.70
2018-11-11T15:47:25.716Z,1.70
2018-11-11T15:52:35.295Z,1.10
2018-11-11T15:59:14.084Z,1.80
2018-11-11T16:04:23.442Z,2.20
2018-11-11T16:09:33.043Z,1.90
2018-11-11T16:14:42.331Z,2.27
2018-11-11T16:19:51.869Z,2.20
2018-11-11T16:25:01.410Z,1.77
2018-11-11T16:30:13.837Z,2.27
2018-11-11T16:35:24.932Z,2.20
2018-11-11T16:40:35.798Z,2.30
2018-11-11T16:45:45.342Z,2.53
2018-11-11T16:50:54.952Z,2.17
2018-11-11T16:56:04.467Z,2.20
2018-11-11T17:01:14.119Z,2.17
2018-11-11T17:06:23.792Z,2.20
2018-11-11T17:11:33.166Z,2.27
2018-11-11T17:16:37.185Z,1.83
2018-11-11T17:21:46.754Z,2.33
2018-11-11T17:26:56.424Z,1.90
2018-11-11T17:32:06.012Z,1.60
2018-11-11T17:37:15.558Z,1.87
2018-11-11T17:42:25.172Z,1.63
2018-11-11T17:47:34.572Z,1.90
2018-11-11T17:52:44.079Z,2.00
2018-11-11T17:57:53.708Z,1.77
2018-11-11T18:03:03.770Z,2.10
2018-11-11T18:08:13.166Z,2.20
2018-11-11T18:13:22.856Z,2.47
2018-11-11T18:18:32.422Z,2.90
2018-11-11T18:23:41.792Z,2.67
2018-11-11T18:28:51.351Z,2.50
2018-11-11T18:34:00.854Z,3.40
2018-11-11T18:39:11.875Z,2.30
2018-11-11T18:44:15.801Z,2.63
2018-11-11T18:49:19.596Z,2.97
2018-11-11T18:54:23.373Z,2.10
2018-11-11T18:59:27.291Z,2.80
2018-11-11T19:04:31.060Z,2.50
2018-11-11T19:09:34.807Z,2.60
2018-11-11T19:14:38.624Z,2.33
2018-11-11T19:19:42.456Z,2.57
2018-11-11T19:24:46.384Z,2.77
2018-11-11T19:29:51.642Z,2.40
2018-11-11T19:34:55.432Z,2.40
2018-11-11T19:39:59.195Z,2.73
2018-11-11T19:45:10.073Z,2.33
2018-11-11T19:50:16.124Z,1.97
2018-11-11T19:55:20.464Z,1.87
2018-11-11T20:00:25.752Z,1.73
2018-11-11T20:05:29.628Z,1.90
2018-11-11T20:10:33.424Z,2.07
2018-11-11T20:15:37.258Z,1.60
2018-11-11T20:20:41.057Z,1.60
2018-11-11T20:25:44.952Z,1.47
2018-11-11T20:30:48.752Z,1.30
2018-11-11T20:35:53.134Z,1.57
2018-11-11T20:40:56.934Z,1.70
2018-11-11T20:46:00.766Z,1.60
2018-11-11T20:51:10.494Z,1.27
2018-11-11T20:56:20.090Z,1.77
2018-11-11T21:01:30.420Z,1.40
2018-11-11T21:06:39.974Z,1.13
2018-11-11T21:11:50.299Z,1.30
2018-11-11T21:16:56.845Z,1.43
2018-11-11T21:22:12.352Z,1.10
2018-11-11T21:27:21.964Z,1.60
2018-11-11T21:32:25.789Z,1.30
2018-11-11T21:37:29.533Z,1.80
2018-11-11T21:42:39.702Z,1.73
2018-11-11T21:47:49.257Z,2.03
2018-11-11T21:53:38.020Z,1.70
2018-11-11T21:58:47.333Z,1.80
2018-11-11T22:03:54.456Z,1.43
2018-11-11T22:09:05.572Z,1.70
2018-11-11T22:14:12.752Z,2.00
2018-11-11T22:19:22.427Z,1.90
2018-11-11T22:24:31.973Z,2.07
2018-11-11T22:29:41.751Z,1.80
2018-11-11T22:34:51.260Z,2.00
2018-11-11T22:39:55.064Z,2.10
2018-11-11T22:44:58.828Z,2.03
2018-11-11T22:50:02.739Z,2.20
2018-11-11T22:55:07.040Z,1.87
2018-11-11T23:00:22.314Z,1.50
2018-11-11T23:05:31.980Z,2.03
2018-11-11T23:10:41.947Z,1.93
2018-11-11T23:15:51.699Z,2.30
2018-11-11T23:21:01.067Z,2.17
2018-11-11T23:26:10.773Z,2.03
2018-11-11T23:31:16.913Z,2.20
2018-11-11T23:36:26.370Z,2.23
2018-11-11T23:41:36.030Z,2.20
2018-11-11T23:46:45.581Z,2.70
2018-11-11T23:51:55.384Z,2.10
2018-11-11T23:56:59.368Z,2.60
